Skip Navigation LinksHome page > Weather > Current weather Skip Navigation Links

Current Weather

Sarh, Chad

For information only: do not use for flight planning or navigation.
Latest weather
Observation time Thursday, April 17, 2014 10:00 AM WAT
Local time Thursday, April 17, 2014 10:41 AM WAT
Flight conditions Visual Meteorological Conditions
Winds
Wind direction Southeast (140°)
Wind speed 9 mph
Visibility 6.2 mi.
Sky condition
Ceiling unlimited
Sky clear
Temperature 90°F
Dewpoint 59°F
Altimeter 29.91 in.Hg
Derived measurements
Relative humidity 36%
Heat index 90°F
Density altitude 2185 ft.
Remarks
Ceiling and visibility OK.
METAR FTTA 170900Z 14008KT CAVOK 32/15 Q1013

Settings

Location code

InnerDrive.Weather 4.0.4869.0 Release CLR 4.0.30319.18449
Copyright ©2013 Inner Drive Technology. All rights reserved. Portions Copyright ©1986-2013 David Braverman.

Find weather

Site navigation


Skip Navigation Links

Place info

Page info

PayPal - The safer, easier way to pay online!

Return home.

Copyright ©2014 Inner Drive Technology. Purveyors of fine, hand-crafted computer software. Page printed 2014-04-17T09:41:05 UTC.